createdAt,value
2018-01-26T00:02:08.745Z,7.50
2018-01-26T00:04:36.199Z,7.50
2018-01-26T00:07:03.646Z,7.50
2018-01-26T00:09:31.090Z,7.50
2018-01-26T00:11:58.547Z,7.40
2018-01-26T00:14:26.000Z,7.40
2018-01-26T00:16:54.235Z,7.40
2018-01-26T00:19:21.671Z,7.40
2018-01-26T00:21:49.126Z,7.50
2018-01-26T00:24:16.578Z,7.40
2018-01-26T00:26:44.039Z,7.40
2018-01-26T00:29:11.482Z,7.40
2018-01-26T00:31:38.934Z,7.30
2018-01-26T00:34:06.395Z,7.30
2018-01-26T00:36:33.861Z,7.30
2018-01-26T00:39:01.314Z,7.30
2018-01-26T00:41:28.762Z,7.30
2018-01-26T00:43:56.214Z,7.20
2018-01-26T00:46:23.663Z,7.20
2018-01-26T00:48:51.127Z,7.20
2018-01-26T00:51:18.586Z,7.30
2018-01-26T00:53:46.040Z,7.20
2018-01-26T00:56:13.490Z,7.20
2018-01-26T00:58:40.955Z,7.30
2018-01-26T01:01:08.413Z,7.30
2018-01-26T01:03:35.867Z,7.30
2018-01-26T01:06:03.323Z,7.30
2018-01-26T01:08:30.778Z,7.40
2018-01-26T01:10:58.235Z,7.40
2018-01-26T01:13:25.694Z,7.50
2018-01-26T01:15:53.152Z,7.50
2018-01-26T01:18:20.607Z,8.00
2018-01-26T01:20:48.056Z,7.60
2018-01-26T01:23:15.521Z,7.70
2018-01-26T01:25:42.968Z,7.80
2018-01-26T01:28:10.422Z,8.00
2018-01-26T01:30:37.866Z,8.00
2018-01-26T01:33:05.326Z,7.90
2018-01-26T01:35:32.773Z,7.90
2018-01-26T01:38:00.238Z,7.80
2018-01-26T01:40:27.689Z,7.70
2018-01-26T01:42:55.145Z,7.60
2018-01-26T01:45:22.608Z,7.60
2018-01-26T01:47:50.063Z,7.50
2018-01-26T01:50:17.515Z,7.40
2018-01-26T01:52:44.971Z,7.40
2018-01-26T01:55:12.428Z,7.30
2018-01-26T01:57:39.894Z,7.30
2018-01-26T02:00:07.343Z,7.30
2018-01-26T02:02:34.795Z,7.30
2018-01-26T02:05:02.250Z,7.30
2018-01-26T02:07:29.716Z,7.30
2018-01-26T02:09:57.163Z,7.40
2018-01-26T02:12:24.603Z,7.40
2018-01-26T02:14:52.053Z,7.40
2018-01-26T02:17:19.500Z,7.40
2018-01-26T02:19:47.718Z,7.40
2018-01-26T02:22:15.166Z,7.40
2018-01-26T02:25:00.311Z,7.40
2018-01-26T02:27:27.762Z,7.40
2018-01-26T02:29:55.210Z,7.40
2018-01-26T02:32:23.422Z,7.30
2018-01-26T02:34:50.876Z,7.30
2018-01-26T02:37:18.313Z,7.30
2018-01-26T02:39:45.779Z,7.20
2018-01-26T02:42:13.214Z,7.20
2018-01-26T02:44:41.439Z,7.10
2018-01-26T02:47:08.935Z,7.10
2018-01-26T02:49:37.155Z,7.00
2018-01-26T02:52:04.605Z,7.00
2018-01-26T02:54:32.067Z,7.00
2018-01-26T02:56:59.515Z,7.00
2018-01-26T02:59:26.978Z,7.00
2018-01-26T03:01:54.430Z,7.00
2018-01-26T03:04:21.887Z,6.90
2018-01-26T03:06:49.339Z,6.90
2018-01-26T03:09:16.802Z,6.90
2018-01-26T03:11:44.255Z,6.90
2018-01-26T03:14:11.712Z,6.90
2018-01-26T03:16:39.161Z,6.90
2018-01-26T03:19:06.631Z,7.00
2018-01-26T03:21:34.081Z,6.90
2018-01-26T03:24:01.536Z,7.00
2018-01-26T03:26:29.030Z,7.10
2018-01-26T03:28:56.483Z,7.10
2018-01-26T03:31:23.944Z,7.00
2018-01-26T03:33:51.382Z,7.00
2018-01-26T03:36:18.839Z,6.90
2018-01-26T03:38:46.290Z,7.00
2018-01-26T03:41:13.747Z,7.00
2018-01-26T03:43:41.195Z,7.00
2018-01-26T03:46:08.650Z,7.00
2018-01-26T03:48:36.099Z,7.00
2018-01-26T03:51:03.550Z,7.00
2018-01-26T03:53:31.011Z,7.00
2018-01-26T03:55:58.466Z,7.00
2018-01-26T03:58:25.922Z,7.00
2018-01-26T04:00:53.379Z,7.00
2018-01-26T04:03:20.825Z,7.00
2018-01-26T04:05:48.281Z,7.00
2018-01-26T04:08:15.719Z,7.00
2018-01-26T04:10:43.191Z,7.00
2018-01-26T04:13:11.386Z,6.90
2018-01-26T04:15:38.847Z,6.90
2018-01-26T04:18:06.291Z,6.90
2018-01-26T04:20:33.747Z,6.90
2018-01-26T04:23:01.211Z,6.80
2018-01-26T04:25:28.667Z,6.80
2018-01-26T04:27:56.110Z,6.90
2018-01-26T04:30:23.575Z,6.90
2018-01-26T04:32:51.032Z,6.90
2018-01-26T04:35:18.488Z,7.00
2018-01-26T04:37:45.948Z,7.00
2018-01-26T04:40:13.398Z,7.00
2018-01-26T04:42:40.856Z,7.00
2018-01-26T04:45:08.310Z,7.00
2018-01-26T04:47:35.771Z,7.10
2018-01-26T04:50:03.227Z,7.10
2018-01-26T04:52:30.683Z,7.10
2018-01-26T04:54:58.143Z,7.20
2018-01-26T04:57:25.595Z,7.20
2018-01-26T04:59:53.051Z,7.20
2018-01-26T05:02:20.521Z,7.20
2018-01-26T05:04:47.955Z,7.20
2018-01-26T05:07:15.410Z,7.20
2018-01-26T05:09:42.842Z,7.20
2018-01-26T05:12:11.059Z,7.30
2018-01-26T05:14:38.502Z,7.30
2018-01-26T05:17:05.962Z,7.40
2018-01-26T05:19:33.423Z,7.40
2018-01-26T05:22:00.870Z,7.50
2018-01-26T05:24:28.331Z,7.50
2018-01-26T05:26:55.788Z,7.50
2018-01-26T05:29:23.237Z,7.50
2018-01-26T05:31:50.682Z,7.40
2018-01-26T05:34:18.125Z,7.40
2018-01-26T05:36:46.366Z,7.30
2018-01-26T05:39:13.828Z,7.30
2018-01-26T05:41:41.279Z,7.30
2018-01-26T05:44:08.733Z,7.30
2018-01-26T05:46:36.174Z,7.30
2018-01-26T05:49:03.623Z,7.30
2018-01-26T05:51:31.073Z,7.30
2018-01-26T05:53:58.523Z,7.30
2018-01-26T05:56:25.984Z,7.20
2018-01-26T05:58:53.437Z,7.20
2018-01-26T06:01:20.892Z,7.20
2018-01-26T06:03:48.353Z,7.10
2018-01-26T06:06:15.808Z,7.10
2018-01-26T06:08:43.264Z,7.00
2018-01-26T06:11:10.716Z,7.00
2018-01-26T06:13:38.174Z,7.10
2018-01-26T06:16:05.615Z,7.20
2018-01-26T06:18:33.066Z,7.30
2018-01-26T06:21:00.515Z,7.40
2018-01-26T06:23:28.740Z,7.20
2018-01-26T06:25:58.194Z,7.20
2018-01-26T06:28:25.651Z,7.20
2018-01-26T06:30:53.094Z,7.20
2018-01-26T06:33:21.319Z,7.20
2018-01-26T06:35:48.775Z,7.20
2018-01-26T06:38:16.231Z,7.30
2018-01-26T06:40:43.687Z,7.50
2018-01-26T06:43:11.142Z,7.40
2018-01-26T06:45:38.586Z,7.30
2018-01-26T06:48:06.044Z,7.20
2018-01-26T06:50:33.499Z,7.10
2018-01-26T06:53:00.954Z,7.00
2018-01-26T06:55:28.459Z,7.00
2018-01-26T06:57:56.726Z,6.80
2018-01-26T07:00:24.179Z,6.80
2018-01-26T07:02:51.626Z,6.80
2018-01-26T07:05:19.078Z,6.80
2018-01-26T07:07:46.534Z,6.70
2018-01-26T07:10:13.986Z,6.70
2018-01-26T07:12:41.439Z,6.70
2018-01-26T07:15:08.900Z,6.70
2018-01-26T07:17:36.334Z,6.80
2018-01-26T07:20:03.796Z,6.70
2018-01-26T07:22:31.251Z,6.70
2018-01-26T07:24:58.831Z,6.70
2018-01-26T07:27:26.701Z,6.70
2018-01-26T07:29:54.142Z,6.70
2018-01-26T07:32:21.592Z,6.70
2018-01-26T07:34:49.059Z,6.60
2018-01-26T07:40:10.046Z,6.60
2018-01-26T07:42:37.478Z,6.60
2018-01-26T07:45:04.934Z,6.50
2018-01-26T07:47:33.151Z,6.50
2018-01-26T07:50:00.605Z,6.50
2018-01-26T07:52:28.951Z,6.60
2018-01-26T07:54:57.171Z,6.70
2018-01-26T07:57:24.621Z,6.70
2018-01-26T07:59:52.826Z,6.70
2018-01-26T08:02:20.279Z,6.70
2018-01-26T08:04:47.722Z,6.70
2018-01-26T08:07:15.183Z,6.70
2018-01-26T08:09:42.635Z,6.80
2018-01-26T08:12:10.080Z,6.80
2018-01-26T08:14:37.530Z,6.80
2018-01-26T08:17:04.984Z,6.90
2018-01-26T08:19:32.450Z,7.00
2018-01-26T08:21:59.910Z,7.00
2018-01-26T08:24:27.376Z,7.20
2018-01-26T08:26:54.823Z,7.30
2018-01-26T08:29:22.269Z,7.40
2018-01-26T08:31:49.716Z,7.50
2018-01-26T08:34:17.167Z,7.60
2018-01-26T08:36:44.610Z,7.70
2018-01-26T08:39:12.060Z,7.80
2018-01-26T08:41:39.506Z,7.90
2018-01-26T08:44:07.714Z,8.10
2018-01-26T08:46:35.292Z,8.10
2018-01-26T08:49:02.793Z,8.10
2018-01-26T08:51:31.028Z,8.10
2018-01-26T08:53:58.483Z,8.00
2018-01-26T08:56:25.939Z,8.00
2018-01-26T08:58:53.383Z,8.00
2018-01-26T09:01:20.843Z,8.00
2018-01-26T09:03:48.286Z,8.00
2018-01-26T09:06:15.738Z,7.90
2018-01-26T09:08:43.227Z,7.90
2018-01-26T09:11:10.691Z,7.90
2018-01-26T09:13:38.139Z,7.90
2018-01-26T09:16:05.591Z,7.90
2018-01-26T09:18:33.058Z,7.90
2018-01-26T09:21:00.504Z,7.90
2018-01-26T09:23:27.962Z,7.90
2018-01-26T09:25:55.473Z,7.90
2018-01-26T09:28:22.920Z,7.90
2018-01-26T09:30:51.140Z,8.10
2018-01-26T09:33:18.594Z,8.10
2018-01-26T09:35:46.034Z,8.20
2018-01-26T09:38:13.494Z,8.20
2018-01-26T09:40:40.947Z,8.20
2018-01-26T09:43:08.403Z,8.20
2018-01-26T09:45:35.858Z,8.30
2018-01-26T09:48:03.322Z,8.30
2018-01-26T09:50:30.771Z,8.30
2018-01-26T09:52:58.229Z,8.30
2018-01-26T09:55:25.683Z,8.30
2018-01-26T09:57:53.141Z,8.20
2018-01-26T10:00:20.596Z,8.30
2018-01-26T10:02:48.053Z,8.40
2018-01-26T10:05:15.506Z,8.60
2018-01-26T10:07:43.722Z,8.80
2018-01-26T10:10:11.175Z,8.80
2018-01-26T10:12:38.618Z,8.90
2018-01-26T10:15:06.058Z,9.00
2018-01-26T10:17:33.506Z,9.00
2018-01-26T10:20:00.943Z,9.10
2018-01-26T10:22:28.387Z,9.30
2018-01-26T10:24:56.605Z,9.70
2018-01-26T10:27:24.046Z,9.60
2018-01-26T10:29:51.491Z,9.80
2018-01-26T10:32:18.939Z,9.70
2018-01-26T10:34:46.378Z,9.70
2018-01-26T10:37:14.592Z,9.80
2018-01-26T10:39:42.031Z,9.80
2018-01-26T10:42:09.474Z,9.80
2018-01-26T10:44:36.910Z,9.90
2018-01-26T10:47:04.370Z,10.00
2018-01-26T10:49:32.588Z,10.10
2018-01-26T10:52:00.040Z,10.10
2018-01-26T10:54:27.503Z,10.20
2018-01-26T10:56:54.998Z,10.10
2018-01-26T10:59:22.450Z,10.20
2018-01-26T11:01:49.886Z,10.10
2018-01-26T11:04:17.343Z,10.00
2018-01-26T11:06:44.782Z,10.00
2018-01-26T11:09:12.238Z,9.90
2018-01-26T11:11:39.675Z,9.80
2018-01-26T11:14:07.127Z,9.80
2018-01-26T11:16:35.528Z,9.80
2018-01-26T11:19:02.978Z,9.80
2018-01-26T11:21:30.418Z,9.70
2018-01-26T11:23:57.858Z,9.80
2018-01-26T11:26:25.303Z,9.80
2018-01-26T11:28:52.748Z,9.80
2018-01-26T11:31:20.196Z,9.90
2018-01-26T11:33:47.651Z,9.90
2018-01-26T11:36:15.085Z,9.90
2018-01-26T11:38:42.527Z,9.90
2018-01-26T11:41:09.966Z,9.80
2018-01-26T11:43:37.416Z,9.90
2018-01-26T11:46:05.631Z,9.70
2018-01-26T11:48:33.083Z,9.70
2018-01-26T11:51:00.519Z,9.80
2018-01-26T11:53:27.961Z,9.80
2018-01-26T11:55:56.166Z,9.80
2018-01-26T11:58:23.624Z,9.80
2018-01-26T12:00:51.077Z,9.90
2018-01-26T12:03:18.510Z,9.90
2018-01-26T12:05:45.958Z,10.00
2018-01-26T12:08:14.162Z,10.10
2018-01-26T12:10:41.624Z,10.10
2018-01-26T12:13:09.062Z,10.20
2018-01-26T12:15:36.536Z,10.20
2018-01-26T12:18:03.991Z,10.20
2018-01-26T12:20:31.459Z,10.20
2018-01-26T12:22:58.904Z,10.10
2018-01-26T12:25:26.698Z,10.20
2018-01-26T12:27:54.452Z,10.20
2018-01-26T12:30:22.225Z,10.20
2018-01-26T12:32:49.985Z,10.20
2018-01-26T12:35:17.737Z,10.30
2018-01-26T12:37:45.216Z,10.30
2018-01-26T12:40:12.719Z,10.30
2018-01-26T12:42:40.212Z,10.30
2018-01-26T12:45:07.714Z,10.20
2018-01-26T12:47:35.210Z,10.10
2018-01-26T12:50:02.711Z,10.10
2018-01-26T12:52:30.203Z,10.10
2018-01-26T12:54:57.646Z,10.10
2018-01-26T12:57:25.906Z,10.00
2018-01-26T12:59:53.398Z,10.00
2018-01-26T13:02:20.895Z,10.00
2018-01-26T13:04:48.340Z,10.00
2018-01-26T13:07:15.846Z,10.00
2018-01-26T13:09:44.105Z,10.10
2018-01-26T13:12:11.576Z,10.00
2018-01-26T13:14:39.855Z,10.00
2018-01-26T13:17:08.106Z,10.00
2018-01-26T13:19:35.551Z,10.00
2018-01-26T13:22:03.046Z,10.00
2018-01-26T13:24:31.316Z,10.20
2018-01-26T13:26:59.578Z,10.30
2018-01-26T13:29:27.053Z,10.30
2018-01-26T13:31:55.319Z,10.30
2018-01-26T13:34:23.583Z,10.30
2018-01-26T13:36:51.092Z,10.30
2018-01-26T13:39:18.578Z,10.20
2018-01-26T13:41:46.022Z,10.00
2018-01-26T13:44:13.467Z,9.80
2018-01-26T13:46:40.915Z,9.80
2018-01-26T13:49:08.355Z,9.90
2018-01-26T13:51:35.800Z,9.80
2018-01-26T13:54:04.990Z,9.60
2018-01-26T13:56:33.223Z,9.60
2018-01-26T13:59:00.680Z,9.60
2018-01-26T14:01:28.135Z,9.60
2018-01-26T14:03:55.573Z,9.50
2018-01-26T14:06:23.022Z,9.50
2018-01-26T14:08:50.949Z,9.40
2018-01-26T14:11:18.491Z,9.30
2018-01-26T14:13:58.320Z,9.20
2018-01-26T14:16:25.766Z,9.20
2018-01-26T14:18:53.207Z,9.30
2018-01-26T14:21:20.659Z,9.30
2018-01-26T14:23:48.095Z,9.30
2018-01-26T14:26:16.311Z,9.20
2018-01-26T14:28:43.747Z,9.20
2018-01-26T14:31:11.359Z,9.20
2018-01-26T14:33:39.586Z,9.00
2018-01-26T14:36:07.046Z,9.00
2018-01-26T14:38:34.495Z,9.00
2018-01-26T14:41:01.927Z,9.00
2018-01-26T14:43:29.371Z,9.00
2018-01-26T14:45:57.594Z,8.90
2018-01-26T14:48:25.040Z,8.90
2018-01-26T14:50:52.499Z,8.90
2018-01-26T14:53:19.950Z,8.90
2018-01-26T14:55:47.394Z,8.80
2018-01-26T14:58:14.846Z,8.70
2018-01-26T15:00:43.207Z,8.70
2018-01-26T15:03:12.521Z,8.60
2018-01-26T15:05:40.079Z,8.60
2018-01-26T15:08:07.615Z,8.60
2018-01-26T15:10:36.462Z,8.50
2018-01-26T15:13:03.898Z,8.50
2018-01-26T15:15:31.342Z,8.50
2018-01-26T15:17:58.796Z,8.40
2018-01-26T15:20:26.232Z,8.40
2018-01-26T15:22:55.471Z,8.40
2018-01-26T15:25:22.913Z,8.40
2018-01-26T15:27:50.366Z,8.40
2018-01-26T15:30:17.802Z,8.40
2018-01-26T15:32:46.018Z,8.30
2018-01-26T15:35:13.459Z,8.30
2018-01-26T15:37:40.935Z,8.30
2018-01-26T15:40:08.379Z,8.20
2018-01-26T15:42:36.150Z,8.20
2018-01-26T15:45:03.888Z,8.10
2018-01-26T15:47:32.398Z,8.20
2018-01-26T15:49:59.911Z,8.10
2018-01-26T15:52:28.128Z,8.10
2018-01-26T15:54:55.793Z,8.10
2018-01-26T15:57:23.282Z,8.10
2018-01-26T15:59:50.765Z,8.00
2018-01-26T16:02:19.024Z,8.00
2018-01-26T16:04:46.509Z,8.00
2018-01-26T16:07:14.774Z,8.00
2018-01-26T16:09:42.268Z,7.90
2018-01-26T16:12:09.719Z,7.90
2018-01-26T16:14:37.230Z,7.90
2018-01-26T16:17:04.718Z,7.90
2018-01-26T16:19:32.154Z,8.00
2018-01-26T16:22:00.426Z,7.90
2018-01-26T16:24:28.642Z,7.90
2018-01-26T16:26:56.139Z,7.90
2018-01-26T16:29:23.638Z,7.90
2018-01-26T16:31:51.123Z,7.90
2018-01-26T16:34:19.389Z,7.90
2018-01-26T16:36:46.869Z,7.90
2018-01-26T16:39:14.374Z,7.90
2018-01-26T16:41:42.666Z,7.80
2018-01-26T16:44:10.154Z,7.80
2018-01-26T16:46:37.654Z,7.80
2018-01-26T16:49:05.143Z,7.80
2018-01-26T16:51:32.625Z,7.80
2018-01-26T16:54:00.115Z,7.80
2018-01-26T16:56:27.596Z,7.70
2018-01-26T16:58:55.867Z,7.70
2018-01-26T17:01:24.157Z,7.70
2018-01-26T17:03:52.414Z,7.60
2018-01-26T17:06:20.227Z,7.70
2018-01-26T17:08:48.014Z,7.60
2018-01-26T17:11:15.782Z,7.60
2018-01-26T17:13:43.220Z,7.60
2018-01-26T17:16:10.787Z,7.60
2018-01-26T17:18:38.260Z,7.60
2018-01-26T17:21:05.708Z,7.60
2018-01-26T17:23:33.217Z,7.50
2018-01-26T17:26:00.662Z,7.50
2018-01-26T17:28:28.874Z,7.50
2018-01-26T17:30:56.393Z,7.50
2018-01-26T17:33:34.669Z,7.40
2018-01-26T17:36:02.170Z,7.40
2018-01-26T17:38:30.382Z,7.50
2018-01-26T17:40:57.887Z,7.50
2018-01-26T17:43:26.167Z,7.50
2018-01-26T17:45:54.383Z,7.50
2018-01-26T17:48:21.828Z,7.40
2018-01-26T17:50:49.279Z,7.50
2018-01-26T17:53:16.809Z,7.40
2018-01-26T17:55:48.261Z,7.40
2018-01-26T17:58:15.724Z,7.40
2018-01-26T18:00:43.267Z,7.40
2018-01-26T18:03:10.723Z,7.40
2018-01-26T18:05:39.078Z,7.40
2018-01-26T18:08:06.619Z,7.40
2018-01-26T18:10:34.087Z,7.40
2018-01-26T18:13:01.582Z,7.40
2018-01-26T18:15:29.845Z,7.30
2018-01-26T18:17:58.059Z,7.30
2018-01-26T18:20:25.514Z,7.30
2018-01-26T18:22:53.549Z,7.30
2018-01-26T18:25:21.827Z,7.30
2018-01-26T18:27:50.035Z,7.30
2018-01-26T18:30:17.559Z,7.30
2018-01-26T18:32:45.822Z,7.30
2018-01-26T18:35:13.263Z,7.30
2018-01-26T18:37:40.727Z,7.30
2018-01-26T18:40:08.175Z,7.30
2018-01-26T18:42:35.623Z,7.30
2018-01-26T18:45:03.075Z,7.40
2018-01-26T18:47:30.526Z,7.40
2018-01-26T18:49:58.035Z,7.30
2018-01-26T18:52:26.305Z,7.40
2018-01-26T18:54:54.523Z,7.40
2018-01-26T18:57:22.034Z,7.30
2018-01-26T18:59:50.293Z,7.30
2018-01-26T19:02:17.786Z,7.30
2018-01-26T19:04:46.047Z,7.30
2018-01-26T19:07:14.359Z,7.30
2018-01-26T19:09:42.535Z,7.30
2018-01-26T19:12:10.041Z,7.20
2018-01-26T19:14:37.538Z,7.20
2018-01-26T19:17:04.983Z,7.20
2018-01-26T19:19:32.477Z,7.20
2018-01-26T19:21:59.974Z,7.20
2018-01-26T19:24:27.458Z,7.20
2018-01-26T19:26:55.014Z,7.10
2018-01-26T19:29:22.507Z,7.10
2018-01-26T19:31:50.082Z,7.10
2018-01-26T19:34:17.677Z,7.10
2018-01-26T19:36:45.292Z,7.10
2018-01-26T19:39:12.818Z,7.10
2018-01-26T19:41:40.314Z,7.10
2018-01-26T19:44:07.806Z,7.10
2018-01-26T19:46:36.070Z,7.10
2018-01-26T19:49:04.513Z,7.10
2018-01-26T19:51:31.963Z,7.00
2018-01-26T19:53:59.481Z,7.00
2018-01-26T19:56:26.970Z,7.00
2018-01-26T19:58:54.466Z,7.00
2018-01-26T20:01:21.963Z,7.00
2018-01-26T20:04:01.339Z,7.00
2018-01-26T20:06:48.532Z,7.00
2018-01-26T20:09:16.047Z,7.00
2018-01-26T20:11:46.323Z,6.90
2018-01-26T20:14:19.496Z,6.80
2018-01-26T20:16:47.043Z,6.80
2018-01-26T20:22:08.191Z,6.80
2018-01-26T20:24:35.686Z,6.80
2018-01-26T20:27:03.173Z,6.80
2018-01-26T20:29:31.442Z,6.80
2018-01-26T20:31:59.676Z,6.70
2018-01-26T20:34:27.151Z,6.70
2018-01-26T20:36:55.430Z,6.70
2018-01-26T20:39:22.924Z,6.70
2018-01-26T20:41:51.188Z,6.70
2018-01-26T20:44:20.476Z,6.70
2018-01-26T20:46:48.757Z,6.70
2018-01-26T20:49:17.019Z,6.70
2018-01-26T20:51:44.505Z,6.70
2018-01-26T20:54:12.817Z,6.70
2018-01-26T20:56:41.165Z,6.70
2018-01-26T20:59:08.681Z,6.70
2018-01-26T21:01:36.259Z,6.70
2018-01-26T21:04:04.664Z,6.70
2018-01-26T21:06:32.140Z,6.70
2018-01-26T21:08:59.642Z,6.70
2018-01-26T21:11:27.327Z,6.70
2018-01-26T21:13:54.801Z,6.60
2018-01-26T21:16:22.462Z,6.60
2018-01-26T21:18:49.953Z,6.60
2018-01-26T21:21:17.501Z,6.70
2018-01-26T21:23:45.070Z,6.60
2018-01-26T21:26:12.638Z,6.70
2018-01-26T21:28:40.192Z,6.70
2018-01-26T21:31:07.703Z,6.70
2018-01-26T21:33:35.259Z,6.60
2018-01-26T21:36:02.789Z,6.60
2018-01-26T21:38:31.250Z,6.70
2018-01-26T21:40:59.723Z,6.60
2018-01-26T21:43:27.188Z,6.60
2018-01-26T21:45:54.685Z,6.70
2018-01-26T21:48:22.222Z,6.60
2018-01-26T21:50:49.671Z,6.60
2018-01-26T21:53:17.187Z,6.70
2018-01-26T21:55:44.647Z,6.60
2018-01-26T21:58:12.169Z,6.60
2018-01-26T22:00:40.621Z,6.60
2018-01-26T22:03:08.069Z,6.60
2018-01-26T22:05:35.579Z,6.60
2018-01-26T22:08:03.086Z,6.70
2018-01-26T22:10:30.729Z,6.60
2018-01-26T22:12:58.202Z,6.60
2018-01-26T22:15:25.714Z,6.60
2018-01-26T22:17:53.211Z,6.60
2018-01-26T22:20:20.767Z,6.60
2018-01-26T22:22:48.283Z,6.60
2018-01-26T22:25:15.786Z,6.60
2018-01-26T22:27:43.218Z,6.60
2018-01-26T22:30:10.852Z,6.60
2018-01-26T22:32:38.307Z,6.60
2018-01-26T22:35:05.822Z,6.70
2018-01-26T22:37:33.315Z,6.60
2018-01-26T22:40:01.570Z,6.70
2018-01-26T22:42:29.053Z,6.60
2018-01-26T22:44:56.546Z,6.70
2018-01-26T22:47:24.050Z,6.70
2018-01-26T22:49:52.263Z,6.60
2018-01-26T22:52:19.770Z,6.60
2018-01-26T22:54:47.269Z,6.60
2018-01-26T22:57:14.761Z,6.60
2018-01-26T22:59:42.199Z,6.70
2018-01-26T23:02:09.651Z,6.70
2018-01-26T23:04:37.098Z,6.70
2018-01-26T23:07:04.604Z,6.70
2018-01-26T23:09:32.085Z,6.70
2018-01-26T23:12:00.306Z,6.60
2018-01-26T23:14:27.779Z,6.60
2018-01-26T23:16:55.247Z,6.60
2018-01-26T23:19:22.808Z,6.60
2018-01-26T23:21:50.305Z,6.60
2018-01-26T23:24:17.746Z,6.60
2018-01-26T23:26:45.256Z,6.60
2018-01-26T23:29:12.703Z,6.70
2018-01-26T23:31:40.206Z,6.70
2018-01-26T23:34:08.468Z,6.60
2018-01-26T23:36:36.938Z,6.60
2018-01-26T23:39:05.212Z,6.60
2018-01-26T23:41:32.652Z,6.60
2018-01-26T23:44:00.101Z,6.60
2018-01-26T23:46:27.563Z,6.60
2018-01-26T23:48:55.019Z,6.50
2018-01-26T23:51:22.475Z,6.50
2018-01-26T23:53:49.924Z,6.50
2018-01-26T23:56:17.423Z,6.50
2018-01-26T23:58:45.634Z,6.50
